sensor_id;sensor_type;location;lat;lon;timestamp;P1;durP1;ratioP1;P2;durP2;ratioP2
21339;SDS011;10828;47.064;15.422;2022-10-16T00:01:30;72.97;;;28.70;;
21339;SDS011;10828;47.064;15.422;2022-10-16T00:04:02;70.97;;;29.40;;
21339;SDS011;10828;47.064;15.422;2022-10-16T00:06:28;76.70;;;28.03;;
21339;SDS011;10828;47.064;15.422;2022-10-16T00:08:55;68.67;;;29.03;;
21339;SDS011;10828;47.064;15.422;2022-10-16T00:11:22;70.80;;;28.77;;
21339;SDS011;10828;47.064;15.422;2022-10-16T00:13:49;73.70;;;28.70;;
21339;SDS011;10828;47.064;15.422;2022-10-16T00:16:16;73.13;;;28.70;;
21339;SDS011;10828;47.064;15.422;2022-10-16T00:18:42;70.80;;;29.73;;
21339;SDS011;10828;47.064;15.422;2022-10-16T00:21:10;69.23;;;28.40;;
21339;SDS011;10828;47.064;15.422;2022-10-16T00:23:38;77.50;;;29.47;;
21339;SDS011;10828;47.064;15.422;2022-10-16T00:26:07;71.60;;;28.50;;
21339;SDS011;10828;47.064;15.422;2022-10-16T00:31:09;74.00;;;27.93;;
21339;SDS011;10828;47.064;15.422;2022-10-16T00:33:38;71.33;;;28.63;;
21339;SDS011;10828;47.064;15.422;2022-10-16T00:36:07;81.13;;;29.23;;
21339;SDS011;10828;47.064;15.422;2022-10-16T00:38:35;69.60;;;28.43;;
21339;SDS011;10828;47.064;15.422;2022-10-16T00:41:03;75.90;;;28.77;;
21339;SDS011;10828;47.064;15.422;2022-10-16T00:48:45;68.27;;;28.47;;
21339;SDS011;10828;47.064;15.422;2022-10-16T00:51:12;67.33;;;27.47;;
21339;SDS011;10828;47.064;15.422;2022-10-16T00:53:41;75.97;;;28.97;;
21339;SDS011;10828;47.064;15.422;2022-10-16T00:56:09;73.67;;;26.57;;
21339;SDS011;10828;47.064;15.422;2022-10-16T00:58:36;76.13;;;28.07;;
21339;SDS011;10828;47.064;15.422;2022-10-16T01:01:03;73.73;;;27.60;;
21339;SDS011;10828;47.064;15.422;2022-10-16T01:06:16;66.77;;;27.70;;
21339;SDS011;10828;47.064;15.422;2022-10-16T01:11:36;67.53;;;28.17;;
21339;SDS011;10828;47.064;15.422;2022-10-16T01:14:06;61.87;;;26.63;;
21339;SDS011;10828;47.064;15.422;2022-10-16T01:16:38;61.77;;;26.00;;
21339;SDS011;10828;47.064;15.422;2022-10-16T01:21:57;69.00;;;25.83;;
21339;SDS011;10828;47.064;15.422;2022-10-16T01:24:31;61.97;;;26.17;;
21339;SDS011;10828;47.064;15.422;2022-10-16T01:35:11;65.37;;;26.57;;
21339;SDS011;10828;47.064;15.422;2022-10-16T01:37:54;67.10;;;26.37;;
21339;SDS011;10828;47.064;15.422;2022-10-16T01:40:24;56.50;;;23.83;;
21339;SDS011;10828;47.064;15.422;2022-10-16T01:42:59;67.77;;;25.53;;
21339;SDS011;10828;47.064;15.422;2022-10-16T01:45:37;65.40;;;26.27;;
21339;SDS011;10828;47.064;15.422;2022-10-16T01:48:13;56.00;;;23.83;;
21339;SDS011;10828;47.064;15.422;2022-10-16T01:50:40;60.53;;;25.53;;
21339;SDS011;10828;47.064;15.422;2022-10-16T01:53:11;66.20;;;25.23;;
21339;SDS011;10828;47.064;15.422;2022-10-16T01:55:44;60.40;;;24.70;;
21339;SDS011;10828;47.064;15.422;2022-10-16T01:58:19;70.13;;;25.77;;
21339;SDS011;10828;47.064;15.422;2022-10-16T02:00:47;71.47;;;27.20;;
21339;SDS011;10828;47.064;15.422;2022-10-16T02:03:21;63.27;;;25.70;;
21339;SDS011;10828;47.064;15.422;2022-10-16T02:05:55;64.97;;;23.33;;
21339;SDS011;10828;47.064;15.422;2022-10-16T02:08:23;68.23;;;24.77;;
21339;SDS011;10828;47.064;15.422;2022-10-16T02:10:51;60.37;;;25.10;;
21339;SDS011;10828;47.064;15.422;2022-10-16T02:13:39;61.90;;;25.73;;
21339;SDS011;10828;47.064;15.422;2022-10-16T02:16:03;61.20;;;25.30;;
21339;SDS011;10828;47.064;15.422;2022-10-16T02:18:32;68.30;;;25.80;;
21339;SDS011;10828;47.064;15.422;2022-10-16T02:20:59;63.20;;;25.60;;
21339;SDS011;10828;47.064;15.422;2022-10-16T02:23:34;61.00;;;24.73;;
21339;SDS011;10828;47.064;15.422;2022-10-16T02:26:02;66.10;;;24.13;;
21339;SDS011;10828;47.064;15.422;2022-10-16T02:28:40;67.40;;;24.90;;
21339;SDS011;10828;47.064;15.422;2022-10-16T02:31:09;61.10;;;25.50;;
21339;SDS011;10828;47.064;15.422;2022-10-16T02:33:35;59.03;;;23.03;;
21339;SDS011;10828;47.064;15.422;2022-10-16T02:36:05;51.37;;;21.57;;
21339;SDS011;10828;47.064;15.422;2022-10-16T02:38:32;52.27;;;23.73;;
21339;SDS011;10828;47.064;15.422;2022-10-16T02:40:59;55.70;;;23.00;;
21339;SDS011;10828;47.064;15.422;2022-10-16T02:43:26;53.60;;;24.67;;
21339;SDS011;10828;47.064;15.422;2022-10-16T02:45:52;56.43;;;23.20;;
21339;SDS011;10828;47.064;15.422;2022-10-16T02:48:18;51.77;;;22.23;;
21339;SDS011;10828;47.064;15.422;2022-10-16T02:50:44;55.50;;;23.27;;
21339;SDS011;10828;47.064;15.422;2022-10-16T02:53:10;46.07;;;21.17;;
21339;SDS011;10828;47.064;15.422;2022-10-16T02:55:36;43.60;;;21.33;;
21339;SDS011;10828;47.064;15.422;2022-10-16T02:58:03;51.53;;;22.60;;
21339;SDS011;10828;47.064;15.422;2022-10-16T03:00:30;51.30;;;22.83;;
21339;SDS011;10828;47.064;15.422;2022-10-16T03:02:57;47.73;;;20.93;;
21339;SDS011;10828;47.064;15.422;2022-10-16T03:05:24;49.40;;;21.43;;
21339;SDS011;10828;47.064;15.422;2022-10-16T03:07:50;52.63;;;21.90;;
21339;SDS011;10828;47.064;15.422;2022-10-16T03:10:18;55.80;;;23.57;;
21339;SDS011;10828;47.064;15.422;2022-10-16T03:12:45;50.03;;;22.10;;
21339;SDS011;10828;47.064;15.422;2022-10-16T03:15:12;57.70;;;22.90;;
21339;SDS011;10828;47.064;15.422;2022-10-16T03:17:38;54.30;;;23.30;;
21339;SDS011;10828;47.064;15.422;2022-10-16T03:20:04;54.50;;;23.27;;
21339;SDS011;10828;47.064;15.422;2022-10-16T03:22:31;62.80;;;23.87;;
21339;SDS011;10828;47.064;15.422;2022-10-16T03:24:58;51.40;;;22.80;;
21339;SDS011;10828;47.064;15.422;2022-10-16T03:27:25;58.20;;;23.20;;
21339;SDS011;10828;47.064;15.422;2022-10-16T03:29:51;59.73;;;24.90;;
21339;SDS011;10828;47.064;15.422;2022-10-16T03:32:18;60.80;;;24.13;;
21339;SDS011;10828;47.064;15.422;2022-10-16T03:34:45;52.40;;;22.50;;
21339;SDS011;10828;47.064;15.422;2022-10-16T03:37:11;52.43;;;22.53;;
21339;SDS011;10828;47.064;15.422;2022-10-16T03:39:37;48.57;;;20.80;;
21339;SDS011;10828;47.064;15.422;2022-10-16T03:42:05;50.50;;;21.80;;
21339;SDS011;10828;47.064;15.422;2022-10-16T03:44:31;52.20;;;20.93;;
21339;SDS011;10828;47.064;15.422;2022-10-16T03:46:57;50.80;;;22.63;;
21339;SDS011;10828;47.064;15.422;2022-10-16T03:49:23;57.33;;;22.77;;
21339;SDS011;10828;47.064;15.422;2022-10-16T03:51:49;53.27;;;22.03;;
21339;SDS011;10828;47.064;15.422;2022-10-16T03:54:16;58.97;;;22.83;;
21339;SDS011;10828;47.064;15.422;2022-10-16T03:56:43;56.40;;;21.63;;
21339;SDS011;10828;47.064;15.422;2022-10-16T03:59:09;49.43;;;22.57;;
21339;SDS011;10828;47.064;15.422;2022-10-16T04:01:35;53.23;;;22.93;;
21339;SDS011;10828;47.064;15.422;2022-10-16T04:04:03;52.20;;;21.43;;
21339;SDS011;10828;47.064;15.422;2022-10-16T04:06:30;58.47;;;23.60;;
21339;SDS011;10828;47.064;15.422;2022-10-16T04:09:02;52.20;;;22.97;;
21339;SDS011;10828;47.064;15.422;2022-10-16T04:11:29;63.07;;;21.97;;
21339;SDS011;10828;47.064;15.422;2022-10-16T04:13:56;57.37;;;22.63;;
21339;SDS011;10828;47.064;15.422;2022-10-16T04:16:22;56.47;;;23.00;;
21339;SDS011;10828;47.064;15.422;2022-10-16T04:18:48;72.17;;;26.50;;
21339;SDS011;10828;47.064;15.422;2022-10-16T04:21:14;57.43;;;23.07;;
21339;SDS011;10828;47.064;15.422;2022-10-16T04:23:40;63.23;;;25.47;;
21339;SDS011;10828;47.064;15.422;2022-10-16T04:26:07;53.73;;;22.70;;
21339;SDS011;10828;47.064;15.422;2022-10-16T04:28:33;64.97;;;24.87;;
21339;SDS011;10828;47.064;15.422;2022-10-16T04:31:03;57.33;;;23.13;;
21339;SDS011;10828;47.064;15.422;2022-10-16T04:33:30;58.00;;;22.97;;
21339;SDS011;10828;47.064;15.422;2022-10-16T04:36:01;58.07;;;25.27;;
21339;SDS011;10828;47.064;15.422;2022-10-16T04:38:27;75.43;;;26.33;;
21339;SDS011;10828;47.064;15.422;2022-10-16T04:41:04;60.03;;;23.93;;
21339;SDS011;10828;47.064;15.422;2022-10-16T04:43:32;59.50;;;23.87;;
21339;SDS011;10828;47.064;15.422;2022-10-16T04:45:59;56.87;;;23.60;;
21339;SDS011;10828;47.064;15.422;2022-10-16T04:48:26;58.70;;;24.37;;
21339;SDS011;10828;47.064;15.422;2022-10-16T04:50:52;61.23;;;24.23;;
21339;SDS011;10828;47.064;15.422;2022-10-16T04:53:18;59.53;;;23.93;;
21339;SDS011;10828;47.064;15.422;2022-10-16T04:55:47;58.40;;;22.57;;
21339;SDS011;10828;47.064;15.422;2022-10-16T04:58:14;61.67;;;24.00;;
21339;SDS011;10828;47.064;15.422;2022-10-16T05:00:40;58.83;;;23.20;;
21339;SDS011;10828;47.064;15.422;2022-10-16T05:03:08;57.77;;;22.57;;
21339;SDS011;10828;47.064;15.422;2022-10-16T05:05:35;56.70;;;23.13;;
21339;SDS011;10828;47.064;15.422;2022-10-16T05:08:03;51.27;;;22.90;;
21339;SDS011;10828;47.064;15.422;2022-10-16T05:10:30;55.80;;;22.97;;
21339;SDS011;10828;47.064;15.422;2022-10-16T05:12:56;60.47;;;22.07;;
21339;SDS011;10828;47.064;15.422;2022-10-16T05:15:23;54.30;;;22.83;;
21339;SDS011;10828;47.064;15.422;2022-10-16T05:17:51;55.07;;;23.43;;
21339;SDS011;10828;47.064;15.422;2022-10-16T05:20:19;64.30;;;22.77;;
21339;SDS011;10828;47.064;15.422;2022-10-16T05:22:46;58.17;;;23.07;;
21339;SDS011;10828;47.064;15.422;2022-10-16T05:25:12;58.60;;;22.83;;
21339;SDS011;10828;47.064;15.422;2022-10-16T05:27:48;59.90;;;24.00;;
21339;SDS011;10828;47.064;15.422;2022-10-16T05:30:16;57.57;;;24.43;;
21339;SDS011;10828;47.064;15.422;2022-10-16T05:32:54;57.03;;;23.37;;
21339;SDS011;10828;47.064;15.422;2022-10-16T05:35:21;64.43;;;24.10;;
21339;SDS011;10828;47.064;15.422;2022-10-16T05:37:48;55.13;;;22.80;;
21339;SDS011;10828;47.064;15.422;2022-10-16T05:40:15;54.17;;;22.13;;
21339;SDS011;10828;47.064;15.422;2022-10-16T05:42:42;57.93;;;23.10;;
21339;SDS011;10828;47.064;15.422;2022-10-16T05:45:09;61.80;;;24.20;;
21339;SDS011;10828;47.064;15.422;2022-10-16T05:47:37;62.07;;;24.10;;
21339;SDS011;10828;47.064;15.422;2022-10-16T05:50:04;64.73;;;24.23;;
21339;SDS011;10828;47.064;15.422;2022-10-16T05:52:32;64.93;;;25.10;;
21339;SDS011;10828;47.064;15.422;2022-10-16T05:54:59;70.00;;;25.33;;
21339;SDS011;10828;47.064;15.422;2022-10-16T05:57:26;67.20;;;25.97;;
21339;SDS011;10828;47.064;15.422;2022-10-16T05:59:52;62.60;;;24.23;;
21339;SDS011;10828;47.064;15.422;2022-10-16T06:02:18;63.47;;;24.73;;
21339;SDS011;10828;47.064;15.422;2022-10-16T06:04:44;59.93;;;22.73;;
21339;SDS011;10828;47.064;15.422;2022-10-16T06:07:11;64.37;;;22.13;;
21339;SDS011;10828;47.064;15.422;2022-10-16T06:09:37;69.57;;;25.53;;
21339;SDS011;10828;47.064;15.422;2022-10-16T06:12:07;63.07;;;24.30;;
21339;SDS011;10828;47.064;15.422;2022-10-16T06:14:34;62.97;;;23.13;;
21339;SDS011;10828;47.064;15.422;2022-10-16T06:17:02;62.47;;;22.80;;
21339;SDS011;10828;47.064;15.422;2022-10-16T06:19:30;60.77;;;24.00;;
21339;SDS011;10828;47.064;15.422;2022-10-16T06:21:57;63.63;;;23.53;;
21339;SDS011;10828;47.064;15.422;2022-10-16T06:24:24;59.47;;;23.20;;
21339;SDS011;10828;47.064;15.422;2022-10-16T06:26:51;60.47;;;22.50;;
21339;SDS011;10828;47.064;15.422;2022-10-16T06:31:48;62.70;;;23.10;;
21339;SDS011;10828;47.064;15.422;2022-10-16T06:34:16;58.83;;;23.63;;
21339;SDS011;10828;47.064;15.422;2022-10-16T06:36:42;68.10;;;25.43;;
21339;SDS011;10828;47.064;15.422;2022-10-16T06:39:09;68.43;;;25.60;;
21339;SDS011;10828;47.064;15.422;2022-10-16T06:41:35;67.53;;;25.37;;
21339;SDS011;10828;47.064;15.422;2022-10-16T06:44:04;77.17;;;27.47;;
21339;SDS011;10828;47.064;15.422;2022-10-16T06:46:31;65.30;;;26.17;;
21339;SDS011;10828;47.064;15.422;2022-10-16T06:48:58;73.20;;;26.37;;
21339;SDS011;10828;47.064;15.422;2022-10-16T06:51:24;76.07;;;26.10;;
21339;SDS011;10828;47.064;15.422;2022-10-16T06:53:52;72.67;;;24.67;;
21339;SDS011;10828;47.064;15.422;2022-10-16T06:56:20;68.07;;;25.57;;
21339;SDS011;10828;47.064;15.422;2022-10-16T06:58:47;64.70;;;23.87;;
21339;SDS011;10828;47.064;15.422;2022-10-16T07:01:14;62.90;;;23.30;;
21339;SDS011;10828;47.064;15.422;2022-10-16T07:03:49;75.23;;;25.47;;
21339;SDS011;10828;47.064;15.422;2022-10-16T07:17:37;61.33;;;24.17;;
21339;SDS011;10828;47.064;15.422;2022-10-16T07:20:04;69.53;;;24.60;;
21339;SDS011;10828;47.064;15.422;2022-10-16T07:22:32;73.60;;;25.43;;
21339;SDS011;10828;47.064;15.422;2022-10-16T07:27:30;67.73;;;24.53;;
21339;SDS011;10828;47.064;15.422;2022-10-16T07:29:59;67.93;;;25.10;;
21339;SDS011;10828;47.064;15.422;2022-10-16T07:32:32;78.13;;;26.13;;
21339;SDS011;10828;47.064;15.422;2022-10-16T07:35:01;69.20;;;27.03;;
21339;SDS011;10828;47.064;15.422;2022-10-16T07:37:30;85.93;;;27.00;;
21339;SDS011;10828;47.064;15.422;2022-10-16T07:39:58;71.90;;;25.50;;
21339;SDS011;10828;47.064;15.422;2022-10-16T07:42:27;66.07;;;24.97;;
21339;SDS011;10828;47.064;15.422;2022-10-16T07:44:54;81.50;;;28.83;;
21339;SDS011;10828;47.064;15.422;2022-10-16T07:47:21;67.63;;;24.23;;
21339;SDS011;10828;47.064;15.422;2022-10-16T07:49:48;69.43;;;24.70;;
21339;SDS011;10828;47.064;15.422;2022-10-16T07:52:14;66.53;;;25.57;;
21339;SDS011;10828;47.064;15.422;2022-10-16T07:54:42;71.17;;;24.83;;
21339;SDS011;10828;47.064;15.422;2022-10-16T07:57:14;64.53;;;25.60;;
21339;SDS011;10828;47.064;15.422;2022-10-16T07:59:49;71.17;;;26.67;;
21339;SDS011;10828;47.064;15.422;2022-10-16T08:02:22;62.40;;;24.20;;
21339;SDS011;10828;47.064;15.422;2022-10-16T08:04:51;67.30;;;25.13;;
21339;SDS011;10828;47.064;15.422;2022-10-16T08:07:19;65.77;;;25.90;;
21339;SDS011;10828;47.064;15.422;2022-10-16T08:09:48;73.57;;;25.60;;
21339;SDS011;10828;47.064;15.422;2022-10-16T08:12:19;64.50;;;26.10;;
21339;SDS011;10828;47.064;15.422;2022-10-16T08:14:46;66.47;;;25.00;;
21339;SDS011;10828;47.064;15.422;2022-10-16T08:17:14;67.97;;;25.53;;
21339;SDS011;10828;47.064;15.422;2022-10-16T08:19:45;66.07;;;23.63;;
21339;SDS011;10828;47.064;15.422;2022-10-16T08:22:13;68.43;;;25.57;;
21339;SDS011;10828;47.064;15.422;2022-10-16T08:24:41;64.47;;;25.80;;
21339;SDS011;10828;47.064;15.422;2022-10-16T08:27:08;63.57;;;26.13;;
21339;SDS011;10828;47.064;15.422;2022-10-16T08:29:50;62.73;;;25.27;;
21339;SDS011;10828;47.064;15.422;2022-10-16T08:32:24;70.43;;;27.33;;
21339;SDS011;10828;47.064;15.422;2022-10-16T08:34:51;66.13;;;26.33;;
21339;SDS011;10828;47.064;15.422;2022-10-16T08:37:30;68.33;;;28.07;;
21339;SDS011;10828;47.064;15.422;2022-10-16T08:39:56;67.77;;;25.57;;
21339;SDS011;10828;47.064;15.422;2022-10-16T08:50:28;58.50;;;25.37;;
21339;SDS011;10828;47.064;15.422;2022-10-16T08:52:55;56.10;;;22.53;;
21339;SDS011;10828;47.064;15.422;2022-10-16T08:57:54;54.13;;;22.40;;
21339;SDS011;10828;47.064;15.422;2022-10-16T09:00:21;49.20;;;21.20;;
21339;SDS011;10828;47.064;15.422;2022-10-16T09:02:53;48.67;;;20.57;;
21339;SDS011;10828;47.064;15.422;2022-10-16T09:10:59;51.80;;;18.87;;
21339;SDS011;10828;47.064;15.422;2022-10-16T09:19:05;39.57;;;17.47;;
21339;SDS011;10828;47.064;15.422;2022-10-16T09:21:41;36.97;;;15.30;;
21339;SDS011;10828;47.064;15.422;2022-10-16T09:24:21;38.27;;;17.13;;
21339;SDS011;10828;47.064;15.422;2022-10-16T09:26:50;39.83;;;16.40;;
21339;SDS011;10828;47.064;15.422;2022-10-16T09:29:18;38.20;;;15.93;;
21339;SDS011;10828;47.064;15.422;2022-10-16T09:31:47;36.27;;;16.90;;
21339;SDS011;10828;47.064;15.422;2022-10-16T09:36:48;41.13;;;17.13;;
21339;SDS011;10828;47.064;15.422;2022-10-16T09:39:27;35.53;;;15.63;;
21339;SDS011;10828;47.064;15.422;2022-10-16T09:41:54;37.17;;;15.70;;
21339;SDS011;10828;47.064;15.422;2022-10-16T09:44:35;36.20;;;16.80;;
21339;SDS011;10828;47.064;15.422;2022-10-16T09:47:17;37.33;;;15.60;;
21339;SDS011;10828;47.064;15.422;2022-10-16T09:50:00;33.20;;;15.20;;
21339;SDS011;10828;47.064;15.422;2022-10-16T09:52:30;34.53;;;15.03;;
21339;SDS011;10828;47.064;15.422;2022-10-16T09:55:09;38.50;;;16.10;;
21339;SDS011;10828;47.064;15.422;2022-10-16T09:57:48;34.20;;;15.87;;
21339;SDS011;10828;47.064;15.422;2022-10-16T10:00:25;36.03;;;15.60;;
21339;SDS011;10828;47.064;15.422;2022-10-16T10:02:53;36.73;;;15.33;;
21339;SDS011;10828;47.064;15.422;2022-10-16T10:05:22;31.00;;;13.83;;
21339;SDS011;10828;47.064;15.422;2022-10-16T10:08:01;31.30;;;14.53;;
21339;SDS011;10828;47.064;15.422;2022-10-16T10:10:42;32.20;;;13.37;;
21339;SDS011;10828;47.064;15.422;2022-10-16T10:13:21;30.37;;;12.60;;
21339;SDS011;10828;47.064;15.422;2022-10-16T10:15:48;30.30;;;14.50;;
21339;SDS011;10828;47.064;15.422;2022-10-16T10:18:16;29.83;;;14.10;;
21339;SDS011;10828;47.064;15.422;2022-10-16T10:20:43;31.97;;;13.77;;
21339;SDS011;10828;47.064;15.422;2022-10-16T10:23:24;28.83;;;13.20;;
21339;SDS011;10828;47.064;15.422;2022-10-16T10:25:54;27.47;;;12.90;;
21339;SDS011;10828;47.064;15.422;2022-10-16T10:37:02;24.03;;;11.80;;
21339;SDS011;10828;47.064;15.422;2022-10-16T10:39:35;26.67;;;12.57;;
21339;SDS011;10828;47.064;15.422;2022-10-16T10:42:22;27.80;;;12.17;;
21339;SDS011;10828;47.064;15.422;2022-10-16T10:50:22;23.93;;;11.40;;
21339;SDS011;10828;47.064;15.422;2022-10-16T10:52:53;26.70;;;10.60;;
21339;SDS011;10828;47.064;15.422;2022-10-16T11:08:36;21.10;;;10.73;;
21339;SDS011;10828;47.064;15.422;2022-10-16T11:11:11;22.33;;;10.33;;
21339;SDS011;10828;47.064;15.422;2022-10-16T11:16:34;19.70;;;10.50;;
21339;SDS011;10828;47.064;15.422;2022-10-16T11:19:26;26.83;;;11.50;;
21339;SDS011;10828;47.064;15.422;2022-10-16T11:22:10;25.50;;;11.07;;
21339;SDS011;10828;47.064;15.422;2022-10-16T11:24:45;27.00;;;10.87;;
21339;SDS011;10828;47.064;15.422;2022-10-16T11:27:14;25.63;;;11.20;;
21339;SDS011;10828;47.064;15.422;2022-10-16T11:29:45;20.97;;;10.27;;
21339;SDS011;10828;47.064;15.422;2022-10-16T11:32:19;21.23;;;10.97;;
21339;SDS011;10828;47.064;15.422;2022-10-16T11:34:49;22.13;;;10.63;;
21339;SDS011;10828;47.064;15.422;2022-10-16T11:37:33;20.80;;;10.47;;
21339;SDS011;10828;47.064;15.422;2022-10-16T11:40:05;20.03;;;9.33;;
21339;SDS011;10828;47.064;15.422;2022-10-16T11:42:48;17.17;;;9.60;;
21339;SDS011;10828;47.064;15.422;2022-10-16T11:45:33;22.07;;;10.10;;
21339;SDS011;10828;47.064;15.422;2022-10-16T11:53:23;20.87;;;10.20;;
21339;SDS011;10828;47.064;15.422;2022-10-16T11:55:55;22.17;;;9.87;;
21339;SDS011;10828;47.064;15.422;2022-10-16T11:58:38;20.87;;;9.93;;
21339;SDS011;10828;47.064;15.422;2022-10-16T12:07:02;19.07;;;9.43;;
21339;SDS011;10828;47.064;15.422;2022-10-16T12:09:43;20.03;;;8.73;;
21339;SDS011;10828;47.064;15.422;2022-10-16T12:17:52;20.30;;;9.30;;
21339;SDS011;10828;47.064;15.422;2022-10-16T12:20:30;18.10;;;8.70;;
21339;SDS011;10828;47.064;15.422;2022-10-16T12:23:04;15.20;;;7.67;;
21339;SDS011;10828;47.064;15.422;2022-10-16T12:25:53;15.37;;;8.03;;
21339;SDS011;10828;47.064;15.422;2022-10-16T12:28:30;15.10;;;7.53;;
21339;SDS011;10828;47.064;15.422;2022-10-16T12:31:10;15.73;;;8.23;;
21339;SDS011;10828;47.064;15.422;2022-10-16T12:34:01;16.30;;;7.47;;
21339;SDS011;10828;47.064;15.422;2022-10-16T12:38:58;14.90;;;7.30;;
21339;SDS011;10828;47.064;15.422;2022-10-16T12:41:28;14.47;;;7.13;;
21339;SDS011;10828;47.064;15.422;2022-10-16T12:43:57;15.90;;;6.77;;
21339;SDS011;10828;47.064;15.422;2022-10-16T12:46:46;18.60;;;8.00;;
21339;SDS011;10828;47.064;15.422;2022-10-16T12:51:43;16.00;;;7.57;;
21339;SDS011;10828;47.064;15.422;2022-10-16T12:54:46;16.43;;;8.57;;
21339;SDS011;10828;47.064;15.422;2022-10-16T12:57:26;19.23;;;8.97;;
21339;SDS011;10828;47.064;15.422;2022-10-16T13:00:09;21.37;;;9.30;;
21339;SDS011;10828;47.064;15.422;2022-10-16T13:10:40;18.90;;;8.67;;
21339;SDS011;10828;47.064;15.422;2022-10-16T13:21:01;18.47;;;8.70;;
21339;SDS011;10828;47.064;15.422;2022-10-16T13:28:43;19.67;;;8.53;;
21339;SDS011;10828;47.064;15.422;2022-10-16T13:31:15;18.37;;;8.60;;
21339;SDS011;10828;47.064;15.422;2022-10-16T13:34:01;19.20;;;9.43;;
21339;SDS011;10828;47.064;15.422;2022-10-16T13:36:43;16.33;;;8.77;;
21339;SDS011;10828;47.064;15.422;2022-10-16T13:42:10;15.37;;;8.47;;
21339;SDS011;10828;47.064;15.422;2022-10-16T13:44:51;22.10;;;9.50;;
21339;SDS011;10828;47.064;15.422;2022-10-16T13:47:29;21.43;;;9.97;;
21339;SDS011;10828;47.064;15.422;2022-10-16T13:52:35;21.67;;;9.87;;
21339;SDS011;10828;47.064;15.422;2022-10-16T13:55:03;18.87;;;9.00;;
21339;SDS011;10828;47.064;15.422;2022-10-16T13:57:37;23.63;;;9.67;;
21339;SDS011;10828;47.064;15.422;2022-10-16T14:00:20;18.40;;;9.20;;
21339;SDS011;10828;47.064;15.422;2022-10-16T14:02:52;25.00;;;9.97;;
21339;SDS011;10828;47.064;15.422;2022-10-16T14:05:21;18.53;;;9.50;;
21339;SDS011;10828;47.064;15.422;2022-10-16T14:07:49;22.90;;;10.37;;
21339;SDS011;10828;47.064;15.422;2022-10-16T14:10:27;20.23;;;9.17;;
21339;SDS011;10828;47.064;15.422;2022-10-16T14:12:58;18.60;;;9.43;;
21339;SDS011;10828;47.064;15.422;2022-10-16T14:15:26;22.50;;;10.03;;
21339;SDS011;10828;47.064;15.422;2022-10-16T14:17:55;19.03;;;9.97;;
21339;SDS011;10828;47.064;15.422;2022-10-16T14:23:02;20.87;;;10.33;;
21339;SDS011;10828;47.064;15.422;2022-10-16T14:25:32;20.10;;;9.57;;
21339;SDS011;10828;47.064;15.422;2022-10-16T14:30:35;18.20;;;9.67;;
21339;SDS011;10828;47.064;15.422;2022-10-16T14:33:06;19.53;;;9.97;;
21339;SDS011;10828;47.064;15.422;2022-10-16T14:35:35;19.93;;;9.77;;
21339;SDS011;10828;47.064;15.422;2022-10-16T14:38:04;20.73;;;9.80;;
21339;SDS011;10828;47.064;15.422;2022-10-16T14:40:35;23.43;;;10.10;;
21339;SDS011;10828;47.064;15.422;2022-10-16T14:43:14;23.80;;;10.60;;
21339;SDS011;10828;47.064;15.422;2022-10-16T14:45:43;22.13;;;10.03;;
21339;SDS011;10828;47.064;15.422;2022-10-16T14:48:17;20.23;;;9.83;;
21339;SDS011;10828;47.064;15.422;2022-10-16T14:50:44;21.87;;;10.17;;
21339;SDS011;10828;47.064;15.422;2022-10-16T14:53:22;19.00;;;10.23;;
21339;SDS011;10828;47.064;15.422;2022-10-16T14:55:56;20.77;;;10.53;;
21339;SDS011;10828;47.064;15.422;2022-10-16T14:58:23;22.43;;;10.70;;
21339;SDS011;10828;47.064;15.422;2022-10-16T15:01:01;23.47;;;10.47;;
21339;SDS011;10828;47.064;15.422;2022-10-16T15:03:28;26.53;;;10.23;;
21339;SDS011;10828;47.064;15.422;2022-10-16T15:05:57;23.70;;;10.30;;
21339;SDS011;10828;47.064;15.422;2022-10-16T15:08:24;21.47;;;10.77;;
21339;SDS011;10828;47.064;15.422;2022-10-16T15:10:52;22.77;;;10.87;;
21339;SDS011;10828;47.064;15.422;2022-10-16T15:13:24;20.20;;;10.43;;
21339;SDS011;10828;47.064;15.422;2022-10-16T15:15:52;20.93;;;10.53;;
21339;SDS011;10828;47.064;15.422;2022-10-16T15:18:19;23.00;;;11.47;;
21339;SDS011;10828;47.064;15.422;2022-10-16T15:20:48;21.87;;;10.10;;
21339;SDS011;10828;47.064;15.422;2022-10-16T15:23:16;23.03;;;11.07;;
21339;SDS011;10828;47.064;15.422;2022-10-16T15:25:53;22.43;;;11.37;;
21339;SDS011;10828;47.064;15.422;2022-10-16T15:28:27;24.00;;;12.63;;
21339;SDS011;10828;47.064;15.422;2022-10-16T15:31:07;25.57;;;12.20;;
21339;SDS011;10828;47.064;15.422;2022-10-16T15:33:49;27.03;;;12.47;;
21339;SDS011;10828;47.064;15.422;2022-10-16T15:36:35;25.77;;;12.43;;
21339;SDS011;10828;47.064;15.422;2022-10-16T15:45:20;25.90;;;13.03;;
21339;SDS011;10828;47.064;15.422;2022-10-16T15:47:59;26.90;;;12.60;;
21339;SDS011;10828;47.064;15.422;2022-10-16T15:53:35;29.47;;;13.40;;
21339;SDS011;10828;47.064;15.422;2022-10-16T15:58:35;30.47;;;13.50;;
21339;SDS011;10828;47.064;15.422;2022-10-16T16:01:03;26.83;;;13.90;;
21339;SDS011;10828;47.064;15.422;2022-10-16T16:03:30;29.90;;;14.87;;
21339;SDS011;10828;47.064;15.422;2022-10-16T16:06:06;31.57;;;13.70;;
21339;SDS011;10828;47.064;15.422;2022-10-16T16:08:43;30.47;;;14.60;;
21339;SDS011;10828;47.064;15.422;2022-10-16T16:11:13;37.07;;;15.23;;
21339;SDS011;10828;47.064;15.422;2022-10-16T16:13:47;31.47;;;15.40;;
21339;SDS011;10828;47.064;15.422;2022-10-16T16:16:15;35.33;;;15.13;;
21339;SDS011;10828;47.064;15.422;2022-10-16T16:18:46;33.63;;;14.77;;
21339;SDS011;10828;47.064;15.422;2022-10-16T16:21:15;34.37;;;15.43;;
21339;SDS011;10828;47.064;15.422;2022-10-16T16:23:43;27.47;;;13.87;;
21339;SDS011;10828;47.064;15.422;2022-10-16T16:26:15;31.00;;;14.50;;
21339;SDS011;10828;47.064;15.422;2022-10-16T16:28:52;32.43;;;14.97;;
21339;SDS011;10828;47.064;15.422;2022-10-16T16:31:20;35.60;;;15.80;;
21339;SDS011;10828;47.064;15.422;2022-10-16T16:33:47;31.07;;;14.60;;
21339;SDS011;10828;47.064;15.422;2022-10-16T16:36:14;43.67;;;16.63;;
21339;SDS011;10828;47.064;15.422;2022-10-16T16:38:42;31.43;;;14.30;;
21339;SDS011;10828;47.064;15.422;2022-10-16T16:41:16;37.40;;;15.77;;
21339;SDS011;10828;47.064;15.422;2022-10-16T16:46:14;41.40;;;17.70;;
21339;SDS011;10828;47.064;15.422;2022-10-16T16:48:43;43.93;;;18.03;;
21339;SDS011;10828;47.064;15.422;2022-10-16T16:51:15;36.53;;;16.80;;
21339;SDS011;10828;47.064;15.422;2022-10-16T16:53:49;42.27;;;17.07;;
21339;SDS011;10828;47.064;15.422;2022-10-16T16:56:18;36.70;;;15.43;;
21339;SDS011;10828;47.064;15.422;2022-10-16T16:58:55;39.47;;;17.83;;
21339;SDS011;10828;47.064;15.422;2022-10-16T17:01:22;36.90;;;17.30;;
21339;SDS011;10828;47.064;15.422;2022-10-16T17:03:51;33.50;;;15.80;;
21339;SDS011;10828;47.064;15.422;2022-10-16T17:06:19;37.90;;;15.23;;
21339;SDS011;10828;47.064;15.422;2022-10-16T17:08:48;36.43;;;16.80;;
21339;SDS011;10828;47.064;15.422;2022-10-16T17:11:22;37.13;;;16.03;;
21339;SDS011;10828;47.064;15.422;2022-10-16T17:13:49;34.37;;;16.37;;